createdAt,value
2019-04-29T00:00:10.836Z,67.20
2019-04-29T00:01:05.934Z,67.10
2019-04-29T00:02:05.900Z,67.20
2019-04-29T00:03:05.675Z,67.10
2019-04-29T00:04:07.627Z,67.10
2019-04-29T00:05:05.628Z,67.10
2019-04-29T00:06:05.754Z,67.20
2019-04-29T00:07:06.738Z,67.10
2019-04-29T00:08:08.394Z,67.30
2019-04-29T00:09:07.204Z,67.30
2019-04-29T00:10:05.620Z,67.30
2019-04-29T00:11:05.849Z,67.20
2019-04-29T00:12:05.064Z,67.30
2019-04-29T00:13:05.215Z,67.20
2019-04-29T00:14:10.579Z,67.40
2019-04-29T00:15:05.691Z,67.40
2019-04-29T00:16:08.343Z,67.40
2019-04-29T00:17:05.465Z,67.40
2019-04-29T00:18:06.869Z,67.50
2019-04-29T00:19:05.425Z,67.50
2019-04-29T00:20:08.094Z,67.60
2019-04-29T00:21:05.057Z,67.60
2019-04-29T00:22:08.510Z,67.60
2019-04-29T00:23:05.978Z,67.70
2019-04-29T00:24:05.117Z,67.70
2019-04-29T00:25:05.379Z,67.70
2019-04-29T00:26:05.587Z,67.80
2019-04-29T00:27:05.721Z,67.80
2019-04-29T00:28:05.867Z,67.90
2019-04-29T00:29:07.529Z,68.00
2019-04-29T00:30:05.038Z,68.00
2019-04-29T00:31:07.721Z,68.20
2019-04-29T00:32:05.809Z,68.10
2019-04-29T00:33:08.720Z,68.30
2019-04-29T00:34:05.748Z,68.10
2019-04-29T00:35:05.958Z,68.20
2019-04-29T00:36:10.087Z,68.30
2019-04-29T00:37:05.167Z,68.30
2019-04-29T00:38:08.238Z,68.20
2019-04-29T00:39:05.366Z,68.10
2019-04-29T00:40:05.496Z,68.20
2019-04-29T00:41:08.262Z,68.20
2019-04-29T00:42:05.408Z,68.20
2019-04-29T00:43:05.548Z,68.30
2019-04-29T00:44:07.590Z,68.30
2019-04-29T00:45:05.571Z,68.30
2019-04-29T00:46:05.759Z,68.40
2019-04-29T00:47:11.035Z,68.40
2019-04-29T00:48:07.508Z,68.40
2019-04-29T00:49:05.748Z,68.40
2019-04-29T00:50:07.689Z,68.50
2019-04-29T00:51:05.774Z,68.50
2019-04-29T00:52:08.553Z,68.40
2019-04-29T00:53:08.326Z,68.50
2019-04-29T00:54:05.492Z,68.50
2019-04-29T00:55:05.670Z,68.50
2019-04-29T00:56:05.746Z,68.60
2019-04-29T00:57:08.380Z,68.60
2019-04-29T00:58:05.308Z,68.60
2019-04-29T00:59:05.830Z,68.60
2019-04-29T01:00:05.988Z,68.60
2019-04-29T01:01:05.396Z,68.60
2019-04-29T01:02:05.598Z,68.70
2019-04-29T01:03:05.916Z,68.70
2019-04-29T01:04:09.281Z,68.80
2019-04-29T01:05:07.765Z,68.80
2019-04-29T01:06:10.952Z,68.80
2019-04-29T01:07:05.513Z,68.80
2019-04-29T01:08:05.771Z,68.90
2019-04-29T01:09:05.926Z,68.90
2019-04-29T01:10:05.092Z,69.00
2019-04-29T01:11:07.745Z,69.10
2019-04-29T01:12:10.978Z,69.20
2019-04-29T01:13:05.027Z,69.10
2019-04-29T01:14:05.194Z,69.20
2019-04-29T01:15:05.435Z,69.30
2019-04-29T01:16:08.203Z,69.30
2019-04-29T01:17:05.301Z,69.30
2019-04-29T01:18:05.387Z,69.30
2019-04-29T01:19:15.629Z,69.40
2019-04-29T01:20:08.116Z,69.60
2019-04-29T01:21:05.130Z,69.60
2019-04-29T01:22:05.308Z,69.60
2019-04-29T01:23:08.202Z,69.70
2019-04-29T01:24:07.704Z,69.60
2019-04-29T01:25:08.762Z,69.80
2019-04-29T01:26:05.783Z,69.70
2019-04-29T01:27:08.494Z,69.80
2019-04-29T01:28:05.540Z,69.60
2019-04-29T01:29:05.850Z,69.70
2019-04-29T01:30:05.191Z,69.80
2019-04-29T01:31:05.383Z,69.80
2019-04-29T01:32:05.545Z,70.00
2019-04-29T01:33:10.757Z,69.90
2019-04-29T01:34:05.834Z,70.00
2019-04-29T01:35:06.055Z,69.90
2019-04-29T01:36:07.947Z,70.00
2019-04-29T01:37:08.461Z,70.10
2019-04-29T01:38:07.995Z,70.10
2019-04-29T01:39:05.967Z,70.00
2019-04-29T01:40:05.262Z,70.20
2019-04-29T01:41:10.446Z,70.30
2019-04-29T01:42:05.436Z,70.40
2019-04-29T01:43:06.232Z,70.50
2019-04-29T01:44:07.477Z,70.60
2019-04-29T01:45:08.138Z,71.00
2019-04-29T01:46:05.140Z,71.00
2019-04-29T01:47:05.259Z,70.80
2019-04-29T01:48:05.516Z,70.80
2019-04-29T01:49:05.898Z,70.90
2019-04-29T01:50:05.078Z,71.00
2019-04-29T01:51:05.208Z,71.00
2019-04-29T01:52:05.529Z,71.10
2019-04-29T01:53:08.528Z,71.20
2019-04-29T01:54:05.563Z,71.20
2019-04-29T01:55:05.952Z,71.20
2019-04-29T01:56:05.166Z,71.30
2019-04-29T01:57:05.333Z,71.40
2019-04-29T01:58:05.974Z,71.50
2019-04-29T01:59:07.630Z,71.60
2019-04-29T02:00:05.657Z,71.60
2019-04-29T02:01:05.891Z,71.70
2019-04-29T02:02:05.030Z,71.80
2019-04-29T02:03:05.336Z,71.70
2019-04-29T02:04:05.654Z,71.70
2019-04-29T02:05:05.986Z,71.80
2019-04-29T02:06:05.174Z,71.90
2019-04-29T02:07:05.560Z,71.90
2019-04-29T02:08:05.683Z,72.00
2019-04-29T02:09:10.531Z,72.00
2019-04-29T02:10:08.181Z,72.10
2019-04-29T02:11:07.665Z,72.20
2019-04-29T02:12:05.722Z,72.20
2019-04-29T02:13:05.976Z,72.20
2019-04-29T02:14:08.349Z,72.30
2019-04-29T02:15:08.037Z,72.30
2019-04-29T02:16:05.127Z,72.30
2019-04-29T02:17:05.471Z,72.40
2019-04-29T02:18:05.758Z,72.70
2019-04-29T02:19:10.979Z,73.20
2019-04-29T02:20:05.796Z,73.30
2019-04-29T02:21:05.923Z,73.30
2019-04-29T02:22:06.399Z,73.30
2019-04-29T02:23:05.399Z,73.40
2019-04-29T02:24:05.892Z,73.50
2019-04-29T02:25:07.716Z,73.60
2019-04-29T02:26:08.321Z,73.70
2019-04-29T02:27:06.212Z,73.70
2019-04-29T02:28:05.484Z,73.70
2019-04-29T02:29:10.761Z,73.80
2019-04-29T02:30:05.759Z,73.90
2019-04-29T02:31:08.690Z,74.10
2019-04-29T02:32:08.341Z,74.20
2019-04-29T02:33:05.371Z,74.10
2019-04-29T02:34:05.529Z,74.30
2019-04-29T02:35:05.664Z,74.30
2019-04-29T02:36:05.866Z,74.40
2019-04-29T02:37:05.248Z,74.50
2019-04-29T02:38:06.723Z,74.50
2019-04-29T02:39:05.855Z,74.60
2019-04-29T02:40:05.016Z,74.70
2019-04-29T02:41:05.202Z,74.60
2019-04-29T02:42:05.374Z,74.70
2019-04-29T02:43:05.589Z,74.70
2019-04-29T02:44:08.244Z,74.90
2019-04-29T02:45:05.273Z,74.80
2019-04-29T02:46:07.943Z,75.00
2019-04-29T02:47:08.528Z,75.20
2019-04-29T02:48:10.662Z,75.30
2019-04-29T02:49:05.629Z,75.20
2019-04-29T02:50:08.498Z,75.40
2019-04-29T02:51:05.577Z,75.40
2019-04-29T02:52:08.442Z,75.50
2019-04-29T02:53:05.512Z,75.50
2019-04-29T02:54:07.670Z,75.60
2019-04-29T02:55:05.897Z,75.60
2019-04-29T02:56:07.542Z,75.60
2019-04-29T02:57:05.869Z,75.60
2019-04-29T02:58:05.310Z,75.60
2019-04-29T02:59:05.414Z,76.10
2019-04-29T03:00:05.733Z,76.10
2019-04-29T03:01:05.593Z,76.00
2019-04-29T03:02:05.595Z,76.00
2019-04-29T03:03:08.328Z,75.90
2019-04-29T03:04:08.102Z,76.10
2019-04-29T03:05:07.894Z,76.00
2019-04-29T03:06:08.457Z,75.90
2019-04-29T03:07:05.581Z,76.10
2019-04-29T03:08:08.193Z,76.50
2019-04-29T03:09:05.189Z,76.50
2019-04-29T03:10:06.919Z,76.40
2019-04-29T03:11:07.691Z,76.20
2019-04-29T03:12:05.761Z,76.40
2019-04-29T03:13:08.490Z,76.20
2019-04-29T03:14:08.001Z,76.30
2019-04-29T03:15:05.173Z,76.30
2019-04-29T03:16:05.544Z,76.40
2019-04-29T03:17:05.758Z,76.30
2019-04-29T03:18:06.012Z,76.40
2019-04-29T03:19:05.231Z,76.40
2019-04-29T03:20:07.899Z,76.60
2019-04-29T03:21:05.950Z,76.60
2019-04-29T03:22:05.051Z,76.70
2019-04-29T03:23:07.806Z,76.80
2019-04-29T03:24:08.506Z,76.90
2019-04-29T03:25:05.537Z,76.80
2019-04-29T03:26:06.927Z,76.70
2019-04-29T03:27:07.737Z,76.90
2019-04-29T03:28:06.284Z,76.90
2019-04-29T03:29:05.339Z,76.90
2019-04-29T03:30:05.734Z,76.90
2019-04-29T03:31:08.454Z,76.90
2019-04-29T03:32:05.455Z,76.90
2019-04-29T03:33:05.650Z,77.00
2019-04-29T03:34:05.903Z,77.00
2019-04-29T03:35:05.201Z,77.00
2019-04-29T03:36:10.460Z,77.10
2019-04-29T03:37:08.165Z,77.10
2019-04-29T03:38:07.880Z,77.20
2019-04-29T03:39:08.553Z,77.10
2019-04-29T03:40:08.272Z,77.20
2019-04-29T03:41:07.993Z,77.20
2019-04-29T03:42:07.759Z,77.20
2019-04-29T03:43:05.984Z,77.20
2019-04-29T03:44:05.464Z,77.30
2019-04-29T03:45:05.735Z,77.30
2019-04-29T03:46:05.877Z,77.30
2019-04-29T03:47:05.132Z,77.40
2019-04-29T03:48:07.806Z,77.50
2019-04-29T03:49:06.015Z,77.50
2019-04-29T03:50:07.773Z,77.60
2019-04-29T03:51:08.428Z,77.60
2019-04-29T03:52:07.967Z,77.60
2019-04-29T03:53:05.163Z,77.60
2019-04-29T03:54:05.421Z,77.60
2019-04-29T03:55:08.271Z,77.90
2019-04-29T03:56:07.997Z,77.80
2019-04-29T03:57:05.230Z,77.90
2019-04-29T03:58:05.761Z,77.90
2019-04-29T03:59:05.899Z,77.90
2019-04-29T04:00:10.203Z,77.90
2019-04-29T04:01:07.749Z,78.00
2019-04-29T04:02:06.807Z,78.00
2019-04-29T04:03:06.046Z,78.20
2019-04-29T04:04:07.825Z,78.10
2019-04-29T04:05:10.953Z,78.10
2019-04-29T04:06:07.788Z,78.20
2019-04-29T04:07:05.836Z,78.10
2019-04-29T04:08:06.045Z,78.30
2019-04-29T04:09:06.922Z,78.40
2019-04-29T04:10:10.311Z,78.40
2019-04-29T04:11:05.538Z,78.40
2019-04-29T04:12:08.344Z,78.40
2019-04-29T04:13:08.150Z,78.40
2019-04-29T04:14:11.437Z,78.50
2019-04-29T04:15:05.587Z,78.50
2019-04-29T04:16:08.236Z,78.50
2019-04-29T04:17:05.405Z,78.50
2019-04-29T04:18:05.572Z,78.60
2019-04-29T04:19:06.282Z,78.60
2019-04-29T04:20:05.386Z,78.60
2019-04-29T04:21:08.094Z,78.60
2019-04-29T04:22:05.159Z,78.60
2019-04-29T04:23:08.045Z,78.60
2019-04-29T04:24:05.313Z,78.60
2019-04-29T04:25:06.037Z,78.60
2019-04-29T04:26:05.264Z,78.60
2019-04-29T04:27:05.956Z,78.60
2019-04-29T04:28:08.497Z,78.60
2019-04-29T04:29:05.587Z,78.60
2019-04-29T04:30:05.056Z,78.70
2019-04-29T04:31:07.466Z,78.80
2019-04-29T04:32:08.211Z,78.70
2019-04-29T04:33:05.390Z,78.60
2019-04-29T04:34:08.324Z,78.60
2019-04-29T04:35:05.449Z,78.70
2019-04-29T04:36:05.693Z,78.80
2019-04-29T04:37:05.964Z,78.80
2019-04-29T04:38:07.811Z,78.80
2019-04-29T04:39:06.492Z,78.80
2019-04-29T04:40:06.163Z,78.80
2019-04-29T04:41:07.877Z,78.80
2019-04-29T04:42:08.518Z,78.90
2019-04-29T04:43:05.550Z,78.90
2019-04-29T04:44:05.811Z,78.90
2019-04-29T04:45:08.628Z,78.90
2019-04-29T04:46:05.877Z,78.90
2019-04-29T04:47:05.183Z,79.00
2019-04-29T04:48:05.371Z,79.10
2019-04-29T04:49:05.466Z,79.10
2019-04-29T04:50:08.229Z,79.10
2019-04-29T04:51:05.604Z,79.10
2019-04-29T04:52:08.532Z,79.10
2019-04-29T04:53:05.530Z,79.10
2019-04-29T04:54:10.826Z,79.10
2019-04-29T04:55:06.093Z,79.10
2019-04-29T04:56:08.005Z,79.10
2019-04-29T04:57:05.113Z,79.10
2019-04-29T04:58:07.824Z,79.10
2019-04-29T04:59:05.187Z,79.00
2019-04-29T05:00:06.472Z,79.00
2019-04-29T05:01:08.326Z,79.20
2019-04-29T05:02:05.379Z,79.20
2019-04-29T05:03:13.240Z,79.20
2019-04-29T05:04:08.374Z,79.10
2019-04-29T05:05:05.439Z,79.10
2019-04-29T05:06:08.060Z,79.30
2019-04-29T05:07:07.620Z,79.30
2019-04-29T05:08:05.863Z,79.30
2019-04-29T05:09:08.730Z,79.10
2019-04-29T05:10:08.292Z,79.10
2019-04-29T05:11:05.477Z,79.10
2019-04-29T05:12:08.328Z,79.10
2019-04-29T05:13:07.832Z,79.10
2019-04-29T05:14:06.237Z,79.10
2019-04-29T05:15:07.822Z,79.20
2019-04-29T05:16:10.985Z,79.20
2019-04-29T05:17:05.125Z,79.10
2019-04-29T05:18:05.527Z,79.10
2019-04-29T05:19:05.958Z,79.20
2019-04-29T05:20:05.114Z,79.30
2019-04-29T05:21:08.643Z,79.20
2019-04-29T05:22:05.880Z,79.20
2019-04-29T05:23:05.160Z,79.20
2019-04-29T05:24:07.830Z,79.20
2019-04-29T05:25:06.309Z,79.20
2019-04-29T05:26:08.047Z,79.10
2019-04-29T05:27:05.180Z,79.20
2019-04-29T05:28:05.630Z,79.10
2019-04-29T05:29:05.894Z,79.10
2019-04-29T05:30:12.803Z,79.20
2019-04-29T05:31:05.791Z,79.20
2019-04-29T05:32:07.189Z,79.20
2019-04-29T05:33:05.332Z,79.20
2019-04-29T05:34:05.635Z,79.10
2019-04-29T05:35:05.908Z,79.20
2019-04-29T05:36:07.588Z,79.20
2019-04-29T05:37:08.242Z,79.20
2019-04-29T05:38:05.335Z,79.20
2019-04-29T05:39:08.289Z,79.40
2019-04-29T05:40:05.447Z,79.30
2019-04-29T05:41:05.834Z,79.40
2019-04-29T05:42:15.965Z,79.40
2019-04-29T05:43:05.563Z,79.40
2019-04-29T05:44:05.896Z,79.30
2019-04-29T05:45:05.192Z,79.30
2019-04-29T05:46:08.237Z,79.30
2019-04-29T05:47:05.638Z,79.30
2019-04-29T05:48:05.867Z,79.30
2019-04-29T05:49:08.968Z,79.30
2019-04-29T05:50:16.644Z,79.30
2019-04-29T05:51:05.123Z,79.30
2019-04-29T05:52:05.364Z,79.30
2019-04-29T05:53:05.830Z,79.40
2019-04-29T05:54:10.203Z,79.50
2019-04-29T05:55:05.404Z,79.60
2019-04-29T05:56:05.950Z,79.40
2019-04-29T05:57:10.909Z,79.40
2019-04-29T05:58:09.040Z,79.50
2019-04-29T05:59:12.731Z,79.50
2019-04-29T06:00:05.887Z,79.50
2019-04-29T06:01:07.635Z,79.50
2019-04-29T06:02:05.598Z,79.50
2019-04-29T06:03:08.284Z,79.50
2019-04-29T06:04:05.434Z,79.50
2019-04-29T06:05:10.683Z,79.40
2019-04-29T06:06:05.704Z,79.50
2019-04-29T06:07:05.939Z,79.40
2019-04-29T06:08:07.774Z,79.50
2019-04-29T06:09:16.976Z,79.50
2019-04-29T06:10:05.452Z,79.40
2019-04-29T06:11:10.748Z,79.50
2019-04-29T06:12:08.339Z,79.50
2019-04-29T06:13:08.169Z,79.50
2019-04-29T06:14:08.531Z,79.60
2019-04-29T06:15:05.679Z,79.50
2019-04-29T06:16:08.560Z,79.60
2019-04-29T06:17:08.144Z,79.60
2019-04-29T06:18:07.986Z,79.70
2019-04-29T06:19:10.204Z,79.60
2019-04-29T06:20:07.727Z,79.60
2019-04-29T06:21:09.836Z,79.60
2019-04-29T06:22:05.297Z,79.60
2019-04-29T06:23:08.145Z,79.60
2019-04-29T06:24:06.799Z,79.60
2019-04-29T06:25:05.112Z,79.50
2019-04-29T06:26:05.280Z,79.50
2019-04-29T06:27:06.418Z,79.50
2019-04-29T06:28:07.983Z,79.50
2019-04-29T06:29:10.035Z,79.50
2019-04-29T06:30:05.342Z,79.50
2019-04-29T06:31:11.462Z,79.40
2019-04-29T06:32:08.575Z,79.40
2019-04-29T06:33:05.885Z,79.40
2019-04-29T06:34:06.805Z,79.30
2019-04-29T06:35:10.334Z,79.20
2019-04-29T06:36:05.705Z,79.20
2019-04-29T06:37:10.966Z,79.10
2019-04-29T06:38:08.926Z,79.10
2019-04-29T06:39:08.602Z,79.00
2019-04-29T06:40:08.363Z,78.90
2019-04-29T06:41:09.599Z,78.80
2019-04-29T06:42:05.900Z,78.70
2019-04-29T06:43:05.148Z,78.60
2019-04-29T06:44:16.960Z,78.20
2019-04-29T06:45:05.254Z,78.20
2019-04-29T06:46:10.655Z,77.80
2019-04-29T06:47:16.615Z,77.70
2019-04-29T06:48:07.775Z,77.70
2019-04-29T06:49:11.081Z,77.60
2019-04-29T06:50:08.175Z,77.40
2019-04-29T06:51:05.281Z,77.40
2019-04-29T06:52:13.050Z,77.20
2019-04-29T06:53:05.105Z,77.20
2019-04-29T06:54:05.242Z,77.20
2019-04-29T06:55:08.340Z,77.00
2019-04-29T06:56:05.369Z,77.00
2019-04-29T06:57:06.037Z,77.00
2019-04-29T06:58:05.297Z,77.00
2019-04-29T06:59:11.968Z,77.00
2019-04-29T07:00:07.934Z,77.10
2019-04-29T07:01:05.217Z,77.10
2019-04-29T07:02:14.244Z,77.20
2019-04-29T07:03:08.188Z,77.20
2019-04-29T07:04:05.526Z,77.20
2019-04-29T07:05:08.310Z,77.30
2019-04-29T07:06:08.227Z,77.30
2019-04-29T07:07:07.761Z,77.20
2019-04-29T07:08:05.895Z,77.20
2019-04-29T07:09:05.035Z,77.20
2019-04-29T07:10:05.455Z,77.20
2019-04-29T07:11:05.847Z,77.30
2019-04-29T07:12:12.281Z,77.40
2019-04-29T07:13:08.277Z,77.00
2019-04-29T07:14:05.444Z,77.00
2019-04-29T07:15:12.153Z,77.00
2019-04-29T07:16:05.947Z,77.20
2019-04-29T07:17:07.175Z,77.10
2019-04-29T07:18:05.588Z,77.10
2019-04-29T07:19:08.381Z,77.20
2019-04-29T07:20:05.603Z,77.20
2019-04-29T07:21:11.812Z,77.00
2019-04-29T07:22:07.850Z,77.20
2019-04-29T07:23:05.994Z,77.20
2019-04-29T07:24:05.156Z,77.10
2019-04-29T07:25:08.182Z,77.00
2019-04-29T07:26:07.844Z,77.00
2019-04-29T07:27:05.829Z,77.00
2019-04-29T07:28:06.101Z,77.00
2019-04-29T07:29:05.375Z,77.20
2019-04-29T07:30:08.795Z,77.10
2019-04-29T07:31:11.400Z,77.00
2019-04-29T07:32:10.649Z,77.00
2019-04-29T07:33:06.225Z,77.40
2019-04-29T07:34:08.721Z,76.90
2019-04-29T07:35:09.750Z,76.80
2019-04-29T07:36:11.715Z,76.60
2019-04-29T07:37:11.079Z,76.40
2019-04-29T07:38:09.894Z,76.40
2019-04-29T07:39:05.122Z,76.30
2019-04-29T07:40:09.329Z,75.90
2019-04-29T07:41:18.882Z,75.90
2019-04-29T07:42:08.141Z,75.80
2019-04-29T07:43:09.824Z,75.80
2019-04-29T07:44:05.935Z,75.80
2019-04-29T07:45:05.257Z,75.70
2019-04-29T07:46:05.914Z,75.20
2019-04-29T07:47:05.200Z,75.10
2019-04-29T07:48:09.566Z,75.00
2019-04-29T07:49:17.010Z,74.70
2019-04-29T07:50:05.370Z,74.80
2019-04-29T07:51:06.346Z,74.50
2019-04-29T07:52:14.404Z,74.10
2019-04-29T07:53:05.898Z,74.10
2019-04-29T07:54:16.158Z,74.10
2019-04-29T07:55:13.237Z,74.10
2019-04-29T07:56:12.874Z,73.80
2019-04-29T07:57:06.283Z,73.80
2019-04-29T07:58:10.658Z,73.30
2019-04-29T07:59:11.579Z,73.40
2019-04-29T08:00:12.761Z,73.30
2019-04-29T08:01:05.570Z,73.00
2019-04-29T08:02:08.297Z,72.40
2019-04-29T08:03:05.444Z,72.40
2019-04-29T08:04:06.572Z,72.50
2019-04-29T08:05:08.295Z,72.30
2019-04-29T08:06:10.458Z,72.20
2019-04-29T08:07:05.498Z,72.20
2019-04-29T08:08:08.228Z,72.00
2019-04-29T08:09:09.848Z,72.00
2019-04-29T08:10:24.087Z,71.90
2019-04-29T08:11:08.314Z,71.80
2019-04-29T08:12:10.423Z,71.80
2019-04-29T08:13:05.618Z,71.80
2019-04-29T08:14:05.977Z,71.80
2019-04-29T08:15:08.709Z,71.90
2019-04-29T08:16:17.041Z,71.80
2019-04-29T08:17:05.665Z,71.80
2019-04-29T08:18:11.187Z,71.30
2019-04-29T08:19:10.708Z,71.60
2019-04-29T08:20:06.744Z,71.60
2019-04-29T08:21:14.286Z,71.80
2019-04-29T08:22:05.606Z,71.90
2019-04-29T08:23:06.077Z,72.00
2019-04-29T08:24:05.336Z,72.20
2019-04-29T08:25:05.704Z,72.20
2019-04-29T08:26:05.787Z,72.10
2019-04-29T08:27:06.230Z,72.10
2019-04-29T08:28:12.947Z,72.30
2019-04-29T08:29:08.948Z,72.60
2019-04-29T08:30:11.198Z,72.50
2019-04-29T08:31:07.141Z,72.70
2019-04-29T08:32:05.340Z,72.70
2019-04-29T08:33:11.881Z,73.00
2019-04-29T08:34:06.024Z,73.40
2019-04-29T08:35:05.908Z,72.90
2019-04-29T08:36:05.330Z,72.40
2019-04-29T08:37:10.663Z,72.80
2019-04-29T08:38:06.702Z,72.80
2019-04-29T08:39:09.144Z,73.10
2019-04-29T08:40:17.715Z,72.60
2019-04-29T08:41:08.320Z,72.80
2019-04-29T08:42:09.401Z,72.70
2019-04-29T08:43:05.673Z,73.10
2019-04-29T08:44:16.779Z,73.30
2019-04-29T08:45:05.159Z,73.50
2019-04-29T08:46:05.597Z,73.80
2019-04-29T08:47:08.346Z,74.50
2019-04-29T08:48:07.955Z,74.70
2019-04-29T08:49:09.691Z,74.70
2019-04-29T08:50:05.239Z,74.90
2019-04-29T08:51:05.480Z,75.00
2019-04-29T08:52:08.153Z,75.30
2019-04-29T08:53:07.876Z,75.60
2019-04-29T08:54:06.632Z,75.70
2019-04-29T08:55:14.536Z,75.90
2019-04-29T08:56:10.092Z,75.90
2019-04-29T08:57:08.238Z,76.30
2019-04-29T08:58:11.100Z,76.30
2019-04-29T08:59:08.488Z,76.40
2019-04-29T09:00:06.146Z,76.30
2019-04-29T09:01:08.089Z,76.40
2019-04-29T09:02:10.064Z,76.40
2019-04-29T09:03:05.878Z,76.50
2019-04-29T09:04:05.327Z,76.50
2019-04-29T09:05:13.131Z,76.80
2019-04-29T09:06:06.995Z,76.80
2019-04-29T09:08:08.014Z,77.00
2019-04-29T09:09:27.785Z,77.00
2019-04-29T09:10:05.857Z,77.20
2019-04-29T09:12:05.371Z,77.20
2019-04-29T09:13:05.521Z,77.30
2019-04-29T09:13:08.063Z,77.20
2019-04-29T09:14:05.419Z,77.30
2019-04-29T09:15:05.884Z,77.30
2019-04-29T09:16:07.746Z,77.40
2019-04-29T09:17:20.837Z,77.50
2019-04-29T09:18:11.434Z,77.60
2019-04-29T09:19:05.585Z,77.70
2019-04-29T09:20:05.978Z,77.80
2019-04-29T09:21:13.479Z,77.90
2019-04-29T09:22:05.634Z,77.90
2019-04-29T09:23:08.429Z,78.20
2019-04-29T09:24:05.627Z,78.20
2019-04-29T09:25:08.655Z,78.30
2019-04-29T09:26:06.001Z,78.30
2019-04-29T09:27:11.137Z,78.40
2019-04-29T09:28:08.127Z,78.60
2019-04-29T09:29:05.885Z,78.60
2019-04-29T09:30:07.698Z,78.70
2019-04-29T09:31:08.255Z,78.90
2019-04-29T09:32:13.170Z,78.80
2019-04-29T09:33:13.027Z,79.20
2019-04-29T09:34:07.269Z,79.20
2019-04-29T09:35:05.460Z,79.20
2019-04-29T09:36:09.476Z,79.30
2019-04-29T09:37:07.283Z,79.40
2019-04-29T09:38:05.644Z,79.50
2019-04-29T09:39:08.768Z,79.60
2019-04-29T09:40:05.151Z,79.60
2019-04-29T09:41:05.539Z,79.60
2019-04-29T09:42:14.527Z,79.70
2019-04-29T09:43:16.011Z,79.80
2019-04-29T09:44:05.968Z,79.90
2019-04-29T09:45:05.174Z,79.90
2019-04-29T09:46:07.823Z,80.10
2019-04-29T09:47:10.326Z,80.10
2019-04-29T09:48:05.563Z,80.00
2019-04-29T09:49:08.316Z,80.10
2019-04-29T09:50:05.369Z,80.10
2019-04-29T09:51:19.753Z,80.20
2019-04-29T09:52:05.438Z,80.20
2019-04-29T09:53:05.799Z,80.20
2019-04-29T09:54:14.386Z,80.20
2019-04-29T09:55:06.273Z,80.30
2019-04-29T09:56:05.488Z,80.30
2019-04-29T09:57:05.704Z,80.40
2019-04-29T09:58:05.864Z,80.50
2019-04-29T09:59:10.224Z,80.50
2019-04-29T10:00:07.358Z,80.50
2019-04-29T10:01:20.532Z,80.70
2019-04-29T10:02:05.867Z,80.70
2019-04-29T10:03:05.177Z,80.90
2019-04-29T10:04:05.498Z,80.80
2019-04-29T10:05:06.504Z,80.90
2019-04-29T10:06:05.277Z,80.90
2019-04-29T10:07:08.066Z,81.30
2019-04-29T10:08:06.587Z,81.30
2019-04-29T10:09:13.582Z,81.40
2019-04-29T10:10:07.842Z,81.40
2019-04-29T10:11:05.181Z,81.40
2019-04-29T10:12:05.314Z,81.40
2019-04-29T10:13:08.198Z,81.30
2019-04-29T10:14:07.898Z,81.40
2019-04-29T10:15:06.110Z,81.30
2019-04-29T10:16:05.663Z,81.30
2019-04-29T10:17:05.876Z,81.60
2019-04-29T10:18:05.248Z,81.50
2019-04-29T10:19:07.086Z,81.60
2019-04-29T10:20:08.443Z,81.40
2019-04-29T10:21:05.589Z,81.60
2019-04-29T10:22:13.593Z,81.80
2019-04-29T10:23:05.784Z,81.80
2019-04-29T10:24:08.615Z,81.70
2019-04-29T10:25:05.763Z,81.70
2019-04-29T10:26:08.514Z,81.90
2019-04-29T10:27:08.310Z,82.00
2019-04-29T10:28:08.221Z,82.20
2019-04-29T10:29:08.031Z,82.30
2019-04-29T10:30:05.182Z,82.30
2019-04-29T10:31:05.611Z,82.40
2019-04-29T10:32:08.572Z,82.60
2019-04-29T10:33:05.822Z,82.70
2019-04-29T10:34:07.998Z,83.10
2019-04-29T10:35:11.116Z,83.00
2019-04-29T10:36:05.468Z,83.00
2019-04-29T10:37:08.186Z,83.10
2019-04-29T10:38:05.301Z,83.10
2019-04-29T10:39:05.468Z,83.10
2019-04-29T10:40:11.924Z,83.40
2019-04-29T10:41:05.468Z,83.30
2019-04-29T10:42:05.845Z,83.20
2019-04-29T10:43:15.334Z,83.60
2019-04-29T10:44:07.950Z,83.70
2019-04-29T10:45:06.076Z,83.70
2019-04-29T10:46:05.502Z,83.60
2019-04-29T10:47:08.035Z,83.80
2019-04-29T10:48:05.195Z,83.80
2019-04-29T10:49:05.641Z,83.80
2019-04-29T10:50:05.838Z,83.80
2019-04-29T10:51:05.191Z,83.90
2019-04-29T10:52:05.403Z,84.20
2019-04-29T10:53:15.384Z,84.20
2019-04-29T10:54:06.055Z,84.20
2019-04-29T10:55:06.992Z,84.10
2019-04-29T10:56:07.878Z,84.30
2019-04-29T10:57:14.649Z,84.30
2019-04-29T10:58:08.799Z,84.40
2019-04-29T10:59:13.491Z,84.40
2019-04-29T11:00:05.628Z,84.40
2019-04-29T11:01:05.880Z,84.40
2019-04-29T11:02:15.756Z,84.40
2019-04-29T11:03:06.253Z,84.50
2019-04-29T11:04:08.542Z,84.60
2019-04-29T11:05:11.782Z,84.50
2019-04-29T11:06:05.362Z,84.40
2019-04-29T11:07:15.914Z,84.60
2019-04-29T11:08:05.219Z,84.60
2019-04-29T11:09:05.535Z,84.50
2019-04-29T11:10:23.979Z,84.50
2019-04-29T11:11:21.740Z,84.50
2019-04-29T11:12:09.288Z,84.50
2019-04-29T11:13:05.821Z,84.50
2019-04-29T11:14:06.082Z,84.50
2019-04-29T11:15:05.217Z,84.60
2019-04-29T11:16:05.500Z,84.70
2019-04-29T11:17:16.946Z,84.70
2019-04-29T11:18:05.216Z,84.70
2019-04-29T11:19:08.295Z,84.70
2019-04-29T11:20:05.415Z,84.70
2019-04-29T11:21:08.609Z,84.70
2019-04-29T11:22:05.318Z,84.70
2019-04-29T11:23:18.266Z,84.70
2019-04-29T11:24:08.005Z,84.70
2019-04-29T11:25:05.223Z,84.70
2019-04-29T11:26:06.006Z,84.60
2019-04-29T11:27:12.731Z,84.60
2019-04-29T11:28:06.228Z,84.60
2019-04-29T11:29:09.747Z,84.50
2019-04-29T11:30:06.076Z,84.40
2019-04-29T11:31:05.524Z,84.40
2019-04-29T11:32:08.290Z,84.50
2019-04-29T11:33:06.573Z,84.50
2019-04-29T11:34:06.112Z,84.60
2019-04-29T11:35:05.420Z,84.60
2019-04-29T11:36:10.752Z,84.70
2019-04-29T11:37:05.833Z,84.70
2019-04-29T11:38:05.238Z,84.70
2019-04-29T11:39:13.729Z,84.80
2019-04-29T11:40:05.899Z,84.80
2019-04-29T11:41:20.810Z,84.80
2019-04-29T11:42:05.265Z,84.80
2019-04-29T11:43:05.398Z,84.70
2019-04-29T11:44:09.849Z,84.80
2019-04-29T11:45:05.898Z,84.90
2019-04-29T11:46:05.294Z,84.80
2019-04-29T11:47:08.154Z,84.80
2019-04-29T11:48:10.258Z,84.80
2019-04-29T11:49:10.646Z,84.70
2019-04-29T11:50:11.825Z,84.80
2019-04-29T11:51:10.833Z,84.80
2019-04-29T11:52:10.458Z,84.80
2019-04-29T11:53:05.614Z,84.90
2019-04-29T11:54:12.309Z,84.90
2019-04-29T11:55:05.708Z,85.00
2019-04-29T11:56:05.923Z,84.80
2019-04-29T11:57:08.058Z,85.00
2019-04-29T11:58:05.306Z,84.80
2019-04-29T11:59:05.826Z,84.80
2019-04-29T12:00:05.286Z,84.80
2019-04-29T12:01:10.289Z,84.90
2019-04-29T12:02:05.811Z,85.00
2019-04-29T12:03:05.314Z,85.00
2019-04-29T12:04:08.125Z,85.00
2019-04-29T12:05:10.191Z,85.00
2019-04-29T12:06:05.470Z,85.00
2019-04-29T12:07:05.749Z,85.00
2019-04-29T12:08:18.276Z,85.10
2019-04-29T12:09:07.188Z,85.20
2019-04-29T12:10:07.916Z,85.10
2019-04-29T12:11:07.634Z,85.20
2019-04-29T12:12:12.679Z,85.20
2019-04-29T12:13:07.998Z,85.30
2019-04-29T12:14:05.266Z,85.30
2019-04-29T12:15:13.579Z,85.30
2019-04-29T12:16:05.351Z,85.30
2019-04-29T12:17:05.616Z,85.30
2019-04-29T12:18:08.388Z,85.40
2019-04-29T12:19:08.078Z,85.40
2019-04-29T12:20:05.308Z,85.40
2019-04-29T12:21:08.136Z,85.60
2019-04-29T12:22:15.103Z,85.80
2019-04-29T12:23:05.275Z,85.60
2019-04-29T12:24:10.592Z,85.60
2019-04-29T12:25:08.419Z,85.60
2019-04-29T12:26:05.662Z,85.60
2019-04-29T12:27:05.917Z,85.50
2019-04-29T12:28:19.799Z,85.60
2019-04-29T12:29:05.320Z,85.60
2019-04-29T12:30:05.942Z,85.60
2019-04-29T12:31:10.246Z,85.60
2019-04-29T12:32:08.363Z,85.70
2019-04-29T12:33:08.007Z,86.00
2019-04-29T12:34:05.281Z,85.90
2019-04-29T12:35:08.024Z,86.10
2019-04-29T12:36:07.587Z,86.00
2019-04-29T12:37:05.690Z,86.00
2019-04-29T12:38:10.635Z,86.10
2019-04-29T12:39:05.296Z,86.00
2019-04-29T12:40:14.381Z,86.00
2019-04-29T12:41:05.617Z,86.00
2019-04-29T12:42:06.180Z,86.10
2019-04-29T12:43:18.047Z,86.30
2019-04-29T12:44:10.068Z,86.30
2019-04-29T12:45:19.905Z,86.30
2019-04-29T12:46:05.297Z,86.40
2019-04-29T12:47:05.439Z,86.50
2019-04-29T12:48:07.006Z,86.60
2019-04-29T12:49:13.491Z,86.70
2019-04-29T12:50:05.826Z,86.80
2019-04-29T12:51:05.341Z,86.80
2019-04-29T12:52:05.565Z,86.60
2019-04-29T12:53:08.299Z,86.80